sensor_id;sensor_type;location;lat;lon;timestamp;P1;durP1;ratioP1;P2;durP2;ratioP2
21513;SDS011;10918;48.102;11.636;2024-01-11T00:02:04;42.08;;;16.80;;
21513;SDS011;10918;48.102;11.636;2024-01-11T00:04:30;37.40;;;15.98;;
21513;SDS011;10918;48.102;11.636;2024-01-11T00:06:56;38.67;;;16.25;;
21513;SDS011;10918;48.102;11.636;2024-01-11T00:09:22;30.15;;;14.38;;
21513;SDS011;10918;48.102;11.636;2024-01-11T00:11:48;37.25;;;16.45;;
21513;SDS011;10918;48.102;11.636;2024-01-11T00:14:14;37.80;;;16.85;;
21513;SDS011;10918;48.102;11.636;2024-01-11T00:16:41;43.72;;;16.80;;
21513;SDS011;10918;48.102;11.636;2024-01-11T00:19:07;35.17;;;15.63;;
21513;SDS011;10918;48.102;11.636;2024-01-11T00:21:33;33.67;;;16.05;;
21513;SDS011;10918;48.102;11.636;2024-01-11T00:23:59;35.58;;;16.20;;
21513;SDS011;10918;48.102;11.636;2024-01-11T00:26:25;35.20;;;16.23;;
21513;SDS011;10918;48.102;11.636;2024-01-11T00:28:51;35.22;;;15.38;;
21513;SDS011;10918;48.102;11.636;2024-01-11T00:31:16;36.30;;;16.10;;
21513;SDS011;10918;48.102;11.636;2024-01-11T00:33:42;34.13;;;16.20;;
21513;SDS011;10918;48.102;11.636;2024-01-11T00:36:08;38.20;;;16.20;;
21513;SDS011;10918;48.102;11.636;2024-01-11T00:38:34;38.45;;;15.63;;
21513;SDS011;10918;48.102;11.636;2024-01-11T00:41:00;34.38;;;15.13;;
21513;SDS011;10918;48.102;11.636;2024-01-11T00:43:26;37.63;;;17.08;;
21513;SDS011;10918;48.102;11.636;2024-01-11T00:45:52;34.90;;;16.73;;
21513;SDS011;10918;48.102;11.636;2024-01-11T00:48:18;37.53;;;16.98;;
21513;SDS011;10918;48.102;11.636;2024-01-11T00:50:44;37.95;;;16.65;;
21513;SDS011;10918;48.102;11.636;2024-01-11T00:53:10;29.20;;;14.90;;
21513;SDS011;10918;48.102;11.636;2024-01-11T00:55:39;32.25;;;14.68;;
21513;SDS011;10918;48.102;11.636;2024-01-11T00:58:05;37.08;;;16.13;;
21513;SDS011;10918;48.102;11.636;2024-01-11T01:00:31;36.03;;;15.98;;
21513;SDS011;10918;48.102;11.636;2024-01-11T01:02:57;24.90;;;13.52;;
21513;SDS011;10918;48.102;11.636;2024-01-11T01:05:23;37.03;;;15.35;;
21513;SDS011;10918;48.102;11.636;2024-01-11T01:07:49;30.83;;;14.20;;
21513;SDS011;10918;48.102;11.636;2024-01-11T01:10:15;35.50;;;14.40;;
21513;SDS011;10918;48.102;11.636;2024-01-11T01:12:41;32.35;;;14.77;;
21513;SDS011;10918;48.102;11.636;2024-01-11T01:15:07;32.08;;;14.98;;
21513;SDS011;10918;48.102;11.636;2024-01-11T01:17:33;32.67;;;15.38;;
21513;SDS011;10918;48.102;11.636;2024-01-11T01:19:59;32.10;;;14.75;;
21513;SDS011;10918;48.102;11.636;2024-01-11T01:22:25;37.42;;;15.75;;
21513;SDS011;10918;48.102;11.636;2024-01-11T01:24:51;39.85;;;17.27;;
21513;SDS011;10918;48.102;11.636;2024-01-11T01:27:17;31.83;;;14.93;;
21513;SDS011;10918;48.102;11.636;2024-01-11T01:29:43;32.03;;;15.75;;
21513;SDS011;10918;48.102;11.636;2024-01-11T01:32:09;32.78;;;15.15;;
21513;SDS011;10918;48.102;11.636;2024-01-11T01:34:35;36.95;;;16.02;;
21513;SDS011;10918;48.102;11.636;2024-01-11T01:37:01;33.70;;;15.90;;
21513;SDS011;10918;48.102;11.636;2024-01-11T01:39:27;36.78;;;17.27;;
21513;SDS011;10918;48.102;11.636;2024-01-11T01:41:53;36.55;;;16.65;;
21513;SDS011;10918;48.102;11.636;2024-01-11T01:44:19;36.17;;;16.77;;
21513;SDS011;10918;48.102;11.636;2024-01-11T01:46:45;35.40;;;15.77;;
21513;SDS011;10918;48.102;11.636;2024-01-11T01:49:12;35.85;;;17.02;;
21513;SDS011;10918;48.102;11.636;2024-01-11T01:51:39;36.28;;;15.85;;
21513;SDS011;10918;48.102;11.636;2024-01-11T01:54:05;42.60;;;16.92;;
21513;SDS011;10918;48.102;11.636;2024-01-11T01:56:31;33.83;;;15.63;;
21513;SDS011;10918;48.102;11.636;2024-01-11T01:58:57;34.28;;;16.10;;
21513;SDS011;10918;48.102;11.636;2024-01-11T02:01:23;32.33;;;14.93;;
21513;SDS011;10918;48.102;11.636;2024-01-11T02:03:52;33.97;;;14.70;;
21513;SDS011;10918;48.102;11.636;2024-01-11T02:06:19;32.53;;;13.45;;
21513;SDS011;10918;48.102;11.636;2024-01-11T02:08:48;24.05;;;13.30;;
21513;SDS011;10918;48.102;11.636;2024-01-11T02:11:14;29.42;;;13.05;;
21513;SDS011;10918;48.102;11.636;2024-01-11T02:13:41;27.05;;;13.32;;
21513;SDS011;10918;48.102;11.636;2024-01-11T02:16:07;28.13;;;11.98;;
21513;SDS011;10918;48.102;11.636;2024-01-11T02:18:33;29.30;;;13.77;;
21513;SDS011;10918;48.102;11.636;2024-01-11T02:20:59;30.00;;;14.13;;
21513;SDS011;10918;48.102;11.636;2024-01-11T02:23:25;32.63;;;13.43;;
21513;SDS011;10918;48.102;11.636;2024-01-11T02:25:52;28.98;;;14.07;;
21513;SDS011;10918;48.102;11.636;2024-01-11T02:28:19;33.28;;;15.18;;
21513;SDS011;10918;48.102;11.636;2024-01-11T02:30:45;33.40;;;15.23;;
21513;SDS011;10918;48.102;11.636;2024-01-11T02:33:11;33.03;;;14.75;;
21513;SDS011;10918;48.102;11.636;2024-01-11T02:35:40;32.17;;;15.25;;
21513;SDS011;10918;48.102;11.636;2024-01-11T02:38:07;36.45;;;15.02;;
21513;SDS011;10918;48.102;11.636;2024-01-11T02:40:34;30.58;;;14.93;;
21513;SDS011;10918;48.102;11.636;2024-01-11T02:43:07;32.45;;;15.13;;
21513;SDS011;10918;48.102;11.636;2024-01-11T02:45:33;37.53;;;16.25;;
21513;SDS011;10918;48.102;11.636;2024-01-11T02:47:59;38.72;;;16.08;;
21513;SDS011;10918;48.102;11.636;2024-01-11T02:50:25;33.63;;;15.60;;
21513;SDS011;10918;48.102;11.636;2024-01-11T02:52:51;34.47;;;16.42;;
21513;SDS011;10918;48.102;11.636;2024-01-11T02:55:16;34.47;;;15.57;;
21513;SDS011;10918;48.102;11.636;2024-01-11T02:57:42;32.83;;;15.25;;
21513;SDS011;10918;48.102;11.636;2024-01-11T03:00:09;35.90;;;14.57;;
21513;SDS011;10918;48.102;11.636;2024-01-11T03:02:36;30.85;;;14.70;;
21513;SDS011;10918;48.102;11.636;2024-01-11T03:05:03;32.95;;;14.55;;
21513;SDS011;10918;48.102;11.636;2024-01-11T03:07:29;32.65;;;15.10;;
21513;SDS011;10918;48.102;11.636;2024-01-11T03:09:55;31.63;;;15.02;;
21513;SDS011;10918;48.102;11.636;2024-01-11T03:12:21;28.73;;;13.55;;
21513;SDS011;10918;48.102;11.636;2024-01-11T03:14:48;33.15;;;15.18;;
21513;SDS011;10918;48.102;11.636;2024-01-11T03:17:14;32.60;;;14.57;;
21513;SDS011;10918;48.102;11.636;2024-01-11T03:19:40;33.03;;;14.68;;
21513;SDS011;10918;48.102;11.636;2024-01-11T03:22:06;38.00;;;14.52;;
21513;SDS011;10918;48.102;11.636;2024-01-11T03:24:32;34.38;;;15.18;;
21513;SDS011;10918;48.102;11.636;2024-01-11T03:26:58;32.33;;;14.30;;
21513;SDS011;10918;48.102;11.636;2024-01-11T03:29:24;35.85;;;15.50;;
21513;SDS011;10918;48.102;11.636;2024-01-11T03:31:50;31.13;;;14.35;;
21513;SDS011;10918;48.102;11.636;2024-01-11T03:34:16;36.97;;;14.43;;
21513;SDS011;10918;48.102;11.636;2024-01-11T03:36:42;31.20;;;14.43;;
21513;SDS011;10918;48.102;11.636;2024-01-11T03:39:08;29.73;;;13.15;;
21513;SDS011;10918;48.102;11.636;2024-01-11T03:41:34;33.15;;;14.55;;
21513;SDS011;10918;48.102;11.636;2024-01-11T03:44:00;27.65;;;13.48;;
21513;SDS011;10918;48.102;11.636;2024-01-11T03:46:26;36.22;;;16.08;;
21513;SDS011;10918;48.102;11.636;2024-01-11T03:48:52;36.42;;;14.75;;
21513;SDS011;10918;48.102;11.636;2024-01-11T03:51:18;34.45;;;15.25;;
21513;SDS011;10918;48.102;11.636;2024-01-11T03:53:44;38.10;;;14.85;;
21513;SDS011;10918;48.102;11.636;2024-01-11T03:56:10;36.25;;;14.77;;
21513;SDS011;10918;48.102;11.636;2024-01-11T03:58:36;31.92;;;13.52;;
21513;SDS011;10918;48.102;11.636;2024-01-11T04:01:04;27.30;;;13.32;;
21513;SDS011;10918;48.102;11.636;2024-01-11T04:03:32;33.33;;;14.77;;
21513;SDS011;10918;48.102;11.636;2024-01-11T04:05:58;29.13;;;14.07;;
21513;SDS011;10918;48.102;11.636;2024-01-11T04:08:24;30.30;;;14.57;;
21513;SDS011;10918;48.102;11.636;2024-01-11T04:10:50;33.60;;;15.07;;
21513;SDS011;10918;48.102;11.636;2024-01-11T04:13:16;30.92;;;14.77;;
21513;SDS011;10918;48.102;11.636;2024-01-11T04:15:42;34.55;;;14.80;;
21513;SDS011;10918;48.102;11.636;2024-01-11T04:18:08;32.13;;;14.50;;
21513;SDS011;10918;48.102;11.636;2024-01-11T04:20:34;33.85;;;15.57;;
21513;SDS011;10918;48.102;11.636;2024-01-11T04:23:00;33.03;;;15.15;;
21513;SDS011;10918;48.102;11.636;2024-01-11T04:25:26;31.40;;;14.63;;
21513;SDS011;10918;48.102;11.636;2024-01-11T04:27:52;30.08;;;13.68;;
21513;SDS011;10918;48.102;11.636;2024-01-11T04:30:18;32.10;;;14.27;;
21513;SDS011;10918;48.102;11.636;2024-01-11T04:32:44;33.25;;;14.35;;
21513;SDS011;10918;48.102;11.636;2024-01-11T04:35:10;29.17;;;13.45;;
21513;SDS011;10918;48.102;11.636;2024-01-11T04:37:37;27.85;;;12.93;;
21513;SDS011;10918;48.102;11.636;2024-01-11T04:40:03;27.92;;;13.45;;
21513;SDS011;10918;48.102;11.636;2024-01-11T04:42:29;33.28;;;14.02;;
21513;SDS011;10918;48.102;11.636;2024-01-11T04:44:55;27.95;;;13.40;;
21513;SDS011;10918;48.102;11.636;2024-01-11T04:47:21;33.22;;;14.05;;
21513;SDS011;10918;48.102;11.636;2024-01-11T04:49:47;32.47;;;13.18;;
21513;SDS011;10918;48.102;11.636;2024-01-11T04:52:13;29.17;;;13.18;;
21513;SDS011;10918;48.102;11.636;2024-01-11T04:54:39;35.83;;;14.52;;
21513;SDS011;10918;48.102;11.636;2024-01-11T04:57:06;32.40;;;15.55;;
21513;SDS011;10918;48.102;11.636;2024-01-11T04:59:32;31.25;;;14.82;;
21513;SDS011;10918;48.102;11.636;2024-01-11T05:01:58;32.05;;;13.50;;
21513;SDS011;10918;48.102;11.636;2024-01-11T05:04:24;29.70;;;14.50;;
21513;SDS011;10918;48.102;11.636;2024-01-11T05:06:51;37.20;;;14.82;;
21513;SDS011;10918;48.102;11.636;2024-01-11T05:09:17;37.67;;;15.77;;
21513;SDS011;10918;48.102;11.636;2024-01-11T05:11:42;33.50;;;14.73;;
21513;SDS011;10918;48.102;11.636;2024-01-11T05:14:08;36.08;;;15.45;;
21513;SDS011;10918;48.102;11.636;2024-01-11T05:16:34;36.40;;;15.13;;
21513;SDS011;10918;48.102;11.636;2024-01-11T05:19:01;36.78;;;15.73;;
21513;SDS011;10918;48.102;11.636;2024-01-11T05:21:27;38.88;;;14.55;;
21513;SDS011;10918;48.102;11.636;2024-01-11T05:23:53;33.13;;;15.50;;
21513;SDS011;10918;48.102;11.636;2024-01-11T05:26:19;37.35;;;14.40;;
21513;SDS011;10918;48.102;11.636;2024-01-11T05:28:45;37.40;;;14.93;;
21513;SDS011;10918;48.102;11.636;2024-01-11T05:31:12;31.02;;;14.30;;
21513;SDS011;10918;48.102;11.636;2024-01-11T05:33:38;34.40;;;14.43;;
21513;SDS011;10918;48.102;11.636;2024-01-11T05:36:05;31.90;;;13.45;;
21513;SDS011;10918;48.102;11.636;2024-01-11T05:38:31;28.88;;;13.55;;
21513;SDS011;10918;48.102;11.636;2024-01-11T05:40:57;31.90;;;14.30;;
21513;SDS011;10918;48.102;11.636;2024-01-11T05:43:23;27.20;;;13.77;;
21513;SDS011;10918;48.102;11.636;2024-01-11T05:45:49;37.00;;;14.77;;
21513;SDS011;10918;48.102;11.636;2024-01-11T05:48:16;31.20;;;14.75;;
21513;SDS011;10918;48.102;11.636;2024-01-11T05:50:42;30.00;;;13.50;;
21513;SDS011;10918;48.102;11.636;2024-01-11T05:53:08;30.75;;;13.43;;
21513;SDS011;10918;48.102;11.636;2024-01-11T05:55:34;29.02;;;12.93;;
21513;SDS011;10918;48.102;11.636;2024-01-11T05:58:00;30.63;;;14.02;;
21513;SDS011;10918;48.102;11.636;2024-01-11T06:00:26;33.65;;;14.77;;
21513;SDS011;10918;48.102;11.636;2024-01-11T06:02:52;28.40;;;13.02;;
21513;SDS011;10918;48.102;11.636;2024-01-11T06:05:18;28.63;;;13.23;;
21513;SDS011;10918;48.102;11.636;2024-01-11T06:07:44;33.95;;;15.13;;
21513;SDS011;10918;48.102;11.636;2024-01-11T06:10:10;31.45;;;14.77;;
21513;SDS011;10918;48.102;11.636;2024-01-11T06:12:36;34.92;;;13.82;;
21513;SDS011;10918;48.102;11.636;2024-01-11T06:15:02;30.58;;;13.57;;
21513;SDS011;10918;48.102;11.636;2024-01-11T06:17:28;26.52;;;13.05;;
21513;SDS011;10918;48.102;11.636;2024-01-11T06:19:55;27.45;;;13.27;;
21513;SDS011;10918;48.102;11.636;2024-01-11T06:22:21;26.60;;;12.65;;
21513;SDS011;10918;48.102;11.636;2024-01-11T06:24:47;28.02;;;13.48;;
21513;SDS011;10918;48.102;11.636;2024-01-11T06:27:13;28.83;;;14.18;;
21513;SDS011;10918;48.102;11.636;2024-01-11T06:29:39;27.88;;;12.15;;
21513;SDS011;10918;48.102;11.636;2024-01-11T06:32:05;29.83;;;13.50;;
21513;SDS011;10918;48.102;11.636;2024-01-11T06:34:31;30.58;;;13.27;;
21513;SDS011;10918;48.102;11.636;2024-01-11T06:36:57;32.60;;;13.32;;
21513;SDS011;10918;48.102;11.636;2024-01-11T06:39:23;25.42;;;12.93;;
21513;SDS011;10918;48.102;11.636;2024-01-11T06:41:49;29.70;;;13.13;;
21513;SDS011;10918;48.102;11.636;2024-01-11T06:44:15;31.65;;;13.40;;
21513;SDS011;10918;48.102;11.636;2024-01-11T06:46:41;27.05;;;12.45;;
21513;SDS011;10918;48.102;11.636;2024-01-11T06:49:07;28.38;;;12.43;;
21513;SDS011;10918;48.102;11.636;2024-01-11T06:51:33;26.77;;;11.90;;
21513;SDS011;10918;48.102;11.636;2024-01-11T06:53:59;25.52;;;12.60;;
21513;SDS011;10918;48.102;11.636;2024-01-11T06:56:26;24.50;;;11.57;;
21513;SDS011;10918;48.102;11.636;2024-01-11T06:58:52;24.33;;;11.38;;
21513;SDS011;10918;48.102;11.636;2024-01-11T07:01:20;25.38;;;11.13;;
21513;SDS011;10918;48.102;11.636;2024-01-11T07:03:46;24.42;;;11.63;;
21513;SDS011;10918;48.102;11.636;2024-01-11T07:06:12;20.70;;;11.57;;
21513;SDS011;10918;48.102;11.636;2024-01-11T07:08:38;24.30;;;11.98;;
21513;SDS011;10918;48.102;11.636;2024-01-11T07:11:04;25.83;;;12.23;;
21513;SDS011;10918;48.102;11.636;2024-01-11T07:13:30;27.02;;;14.05;;
21513;SDS011;10918;48.102;11.636;2024-01-11T07:15:57;25.98;;;12.38;;
21513;SDS011;10918;48.102;11.636;2024-01-11T07:18:23;24.42;;;11.68;;
21513;SDS011;10918;48.102;11.636;2024-01-11T07:20:50;28.90;;;12.57;;
21513;SDS011;10918;48.102;11.636;2024-01-11T07:23:16;27.00;;;12.25;;
21513;SDS011;10918;48.102;11.636;2024-01-11T07:25:42;25.45;;;12.32;;
21513;SDS011;10918;48.102;11.636;2024-01-11T07:28:08;25.90;;;11.95;;
21513;SDS011;10918;48.102;11.636;2024-01-11T07:30:34;26.60;;;12.25;;
21513;SDS011;10918;48.102;11.636;2024-01-11T07:33:00;29.35;;;12.13;;
21513;SDS011;10918;48.102;11.636;2024-01-11T07:35:26;60.72;;;13.15;;
21513;SDS011;10918;48.102;11.636;2024-01-11T07:37:52;22.13;;;10.27;;
21513;SDS011;10918;48.102;11.636;2024-01-11T07:40:19;25.70;;;11.98;;
21513;SDS011;10918;48.102;11.636;2024-01-11T07:42:45;25.35;;;11.10;;
21513;SDS011;10918;48.102;11.636;2024-01-11T07:45:11;27.25;;;12.43;;
21513;SDS011;10918;48.102;11.636;2024-01-11T07:47:37;26.83;;;11.75;;
21513;SDS011;10918;48.102;11.636;2024-01-11T07:50:04;25.83;;;12.23;;
21513;SDS011;10918;48.102;11.636;2024-01-11T07:52:31;23.13;;;11.85;;
21513;SDS011;10918;48.102;11.636;2024-01-11T07:54:57;21.88;;;11.35;;
21513;SDS011;10918;48.102;11.636;2024-01-11T07:57:31;36.55;;;12.98;;
21513;SDS011;10918;48.102;11.636;2024-01-11T07:59:58;27.83;;;13.32;;
21513;SDS011;10918;48.102;11.636;2024-01-11T08:02:24;28.85;;;13.68;;
21513;SDS011;10918;48.102;11.636;2024-01-11T08:04:50;27.65;;;12.93;;
21513;SDS011;10918;48.102;11.636;2024-01-11T08:07:16;28.20;;;13.10;;
21513;SDS011;10918;48.102;11.636;2024-01-11T08:09:42;28.80;;;13.73;;
21513;SDS011;10918;48.102;11.636;2024-01-11T08:12:14;30.42;;;15.15;;
21513;SDS011;10918;48.102;11.636;2024-01-11T08:14:40;32.85;;;14.32;;
21513;SDS011;10918;48.102;11.636;2024-01-11T08:17:11;29.02;;;14.07;;
21513;SDS011;10918;48.102;11.636;2024-01-11T08:19:38;35.03;;;14.60;;
21513;SDS011;10918;48.102;11.636;2024-01-11T08:22:05;33.15;;;14.43;;
21513;SDS011;10918;48.102;11.636;2024-01-11T08:24:31;28.98;;;14.45;;
21513;SDS011;10918;48.102;11.636;2024-01-11T08:26:57;29.20;;;13.60;;
21513;SDS011;10918;48.102;11.636;2024-01-11T08:29:23;30.90;;;14.32;;
21513;SDS011;10918;48.102;11.636;2024-01-11T08:31:49;35.15;;;15.30;;
21513;SDS011;10918;48.102;11.636;2024-01-11T08:34:15;35.15;;;14.80;;
21513;SDS011;10918;48.102;11.636;2024-01-11T08:36:41;32.20;;;13.88;;
21513;SDS011;10918;48.102;11.636;2024-01-11T08:39:07;32.03;;;14.10;;
21513;SDS011;10918;48.102;11.636;2024-01-11T08:41:36;32.88;;;15.70;;
21513;SDS011;10918;48.102;11.636;2024-01-11T08:44:05;31.77;;;15.35;;
21513;SDS011;10918;48.102;11.636;2024-01-11T08:46:31;34.75;;;14.77;;
21513;SDS011;10918;48.102;11.636;2024-01-11T08:48:59;35.90;;;15.65;;
21513;SDS011;10918;48.102;11.636;2024-01-11T08:51:26;31.65;;;13.80;;
21513;SDS011;10918;48.102;11.636;2024-01-11T08:53:52;28.20;;;12.80;;
21513;SDS011;10918;48.102;11.636;2024-01-11T08:56:18;35.03;;;15.50;;
21513;SDS011;10918;48.102;11.636;2024-01-11T08:58:44;33.08;;;15.25;;
21513;SDS011;10918;48.102;11.636;2024-01-11T09:01:11;27.23;;;13.23;;
21513;SDS011;10918;48.102;11.636;2024-01-11T09:03:37;30.75;;;14.88;;
21513;SDS011;10918;48.102;11.636;2024-01-11T09:06:03;37.13;;;16.92;;
21513;SDS011;10918;48.102;11.636;2024-01-11T09:08:29;32.75;;;15.32;;
21513;SDS011;10918;48.102;11.636;2024-01-11T09:10:56;31.38;;;14.60;;
21513;SDS011;10918;48.102;11.636;2024-01-11T09:13:25;31.30;;;15.10;;
21513;SDS011;10918;48.102;11.636;2024-01-11T09:15:52;30.15;;;14.85;;
21513;SDS011;10918;48.102;11.636;2024-01-11T09:18:18;27.88;;;14.15;;
21513;SDS011;10918;48.102;11.636;2024-01-11T09:20:44;29.77;;;15.02;;
21513;SDS011;10918;48.102;11.636;2024-01-11T09:23:11;31.85;;;15.57;;
21513;SDS011;10918;48.102;11.636;2024-01-11T09:25:37;36.38;;;15.45;;
21513;SDS011;10918;48.102;11.636;2024-01-11T09:28:03;36.05;;;15.57;;
21513;SDS011;10918;48.102;11.636;2024-01-11T09:30:29;28.73;;;14.48;;
21513;SDS011;10918;48.102;11.636;2024-01-11T09:32:55;29.08;;;15.52;;
21513;SDS011;10918;48.102;11.636;2024-01-11T09:35:21;30.83;;;15.45;;
21513;SDS011;10918;48.102;11.636;2024-01-11T09:37:48;34.35;;;15.50;;
21513;SDS011;10918;48.102;11.636;2024-01-11T09:40:14;28.73;;;14.98;;
21513;SDS011;10918;48.102;11.636;2024-01-11T09:42:41;29.73;;;14.98;;
21513;SDS011;10918;48.102;11.636;2024-01-11T09:45:07;30.83;;;15.02;;
21513;SDS011;10918;48.102;11.636;2024-01-11T09:47:34;34.53;;;16.10;;
21513;SDS011;10918;48.102;11.636;2024-01-11T09:50:02;30.10;;;16.20;;
21513;SDS011;10918;48.102;11.636;2024-01-11T09:52:28;32.28;;;16.55;;
21513;SDS011;10918;48.102;11.636;2024-01-11T09:54:57;32.42;;;16.27;;
21513;SDS011;10918;48.102;11.636;2024-01-11T09:57:32;28.55;;;14.65;;
21513;SDS011;10918;48.102;11.636;2024-01-11T09:59:58;34.88;;;15.55;;
21513;SDS011;10918;48.102;11.636;2024-01-11T10:02:25;29.83;;;14.77;;
21513;SDS011;10918;48.102;11.636;2024-01-11T10:04:54;31.17;;;16.23;;
21513;SDS011;10918;48.102;11.636;2024-01-11T10:07:21;32.65;;;16.55;;
21513;SDS011;10918;48.102;11.636;2024-01-11T10:09:48;31.13;;;16.23;;
21513;SDS011;10918;48.102;11.636;2024-01-11T10:12:14;30.55;;;16.45;;
21513;SDS011;10918;48.102;11.636;2024-01-11T10:14:40;32.42;;;16.05;;
21513;SDS011;10918;48.102;11.636;2024-01-11T10:17:07;31.52;;;16.80;;
21513;SDS011;10918;48.102;11.636;2024-01-11T10:19:33;33.78;;;17.33;;
21513;SDS011;10918;48.102;11.636;2024-01-11T10:21:59;34.97;;;16.73;;
21513;SDS011;10918;48.102;11.636;2024-01-11T10:24:25;35.65;;;16.95;;
21513;SDS011;10918;48.102;11.636;2024-01-11T10:27:00;35.15;;;16.48;;
21513;SDS011;10918;48.102;11.636;2024-01-11T10:29:32;32.30;;;15.90;;
21513;SDS011;10918;48.102;11.636;2024-01-11T10:31:58;34.22;;;15.88;;
21513;SDS011;10918;48.102;11.636;2024-01-11T10:34:24;35.58;;;17.02;;
21513;SDS011;10918;48.102;11.636;2024-01-11T10:36:50;41.53;;;16.95;;
21513;SDS011;10918;48.102;11.636;2024-01-11T10:39:17;31.58;;;15.38;;
21513;SDS011;10918;48.102;11.636;2024-01-11T10:41:46;34.15;;;17.15;;
21513;SDS011;10918;48.102;11.636;2024-01-11T10:44:17;31.55;;;16.25;;
21513;SDS011;10918;48.102;11.636;2024-01-11T10:46:45;39.50;;;16.73;;
21513;SDS011;10918;48.102;11.636;2024-01-11T10:49:11;34.42;;;16.33;;
21513;SDS011;10918;48.102;11.636;2024-01-11T10:51:40;36.15;;;16.85;;
21513;SDS011;10918;48.102;11.636;2024-01-11T10:54:08;33.80;;;16.73;;
21513;SDS011;10918;48.102;11.636;2024-01-11T10:56:34;35.03;;;16.30;;
21513;SDS011;10918;48.102;11.636;2024-01-11T10:59:04;34.05;;;17.42;;
21513;SDS011;10918;48.102;11.636;2024-01-11T11:01:30;38.60;;;16.70;;
21513;SDS011;10918;48.102;11.636;2024-01-11T11:03:56;31.42;;;15.00;;
21513;SDS011;10918;48.102;11.636;2024-01-11T11:06:22;34.92;;;17.65;;
21513;SDS011;10918;48.102;11.636;2024-01-11T11:08:49;36.72;;;16.92;;
21513;SDS011;10918;48.102;11.636;2024-01-11T11:11:16;32.42;;;16.55;;
21513;SDS011;10918;48.102;11.636;2024-01-11T11:13:43;40.40;;;18.00;;
21513;SDS011;10918;48.102;11.636;2024-01-11T11:16:14;34.42;;;17.95;;
21513;SDS011;10918;48.102;11.636;2024-01-11T11:18:40;37.10;;;18.02;;
21513;SDS011;10918;48.102;11.636;2024-01-11T11:21:09;39.65;;;18.88;;
21513;SDS011;10918;48.102;11.636;2024-01-11T11:23:39;35.50;;;18.02;;
21513;SDS011;10918;48.102;11.636;2024-01-11T11:26:06;32.83;;;16.98;;
21513;SDS011;10918;48.102;11.636;2024-01-11T11:28:35;37.03;;;18.42;;
21513;SDS011;10918;48.102;11.636;2024-01-11T11:31:02;39.08;;;19.05;;
21513;SDS011;10918;48.102;11.636;2024-01-11T11:33:28;36.15;;;18.45;;
21513;SDS011;10918;48.102;11.636;2024-01-11T11:35:58;35.20;;;17.70;;
21513;SDS011;10918;48.102;11.636;2024-01-11T11:38:28;37.30;;;19.27;;
21513;SDS011;10918;48.102;11.636;2024-01-11T11:40:55;38.45;;;19.63;;
21513;SDS011;10918;48.102;11.636;2024-01-11T11:43:22;39.35;;;20.30;;
21513;SDS011;10918;48.102;11.636;2024-01-11T11:45:49;39.42;;;20.50;;
21513;SDS011;10918;48.102;11.636;2024-01-11T11:51:13;37.58;;;19.90;;
21513;SDS011;10918;48.102;11.636;2024-01-11T11:53:40;41.42;;;22.05;;
21513;SDS011;10918;48.102;11.636;2024-01-11T11:56:07;43.17;;;22.30;;
21513;SDS011;10918;48.102;11.636;2024-01-11T11:58:37;48.20;;;23.80;;
21513;SDS011;10918;48.102;11.636;2024-01-11T12:01:07;46.65;;;23.17;;
21513;SDS011;10918;48.102;11.636;2024-01-11T12:03:37;46.00;;;24.30;;
21513;SDS011;10918;48.102;11.636;2024-01-11T12:06:04;48.03;;;24.55;;
21513;SDS011;10918;48.102;11.636;2024-01-11T12:08:31;46.85;;;23.17;;
21513;SDS011;10918;48.102;11.636;2024-01-11T12:10:57;42.40;;;22.48;;
21513;SDS011;10918;48.102;11.636;2024-01-11T12:13:24;49.45;;;23.95;;
21513;SDS011;10918;48.102;11.636;2024-01-11T12:15:50;49.53;;;24.67;;
21513;SDS011;10918;48.102;11.636;2024-01-11T12:18:16;50.47;;;24.45;;
21513;SDS011;10918;48.102;11.636;2024-01-11T12:20:42;50.75;;;24.80;;
21513;SDS011;10918;48.102;11.636;2024-01-11T12:23:08;52.00;;;25.73;;
21513;SDS011;10918;48.102;11.636;2024-01-11T12:25:34;51.58;;;26.08;;
21513;SDS011;10918;48.102;11.636;2024-01-11T12:28:00;53.42;;;26.42;;
21513;SDS011;10918;48.102;11.636;2024-01-11T12:30:26;52.35;;;25.10;;
21513;SDS011;10918;48.102;11.636;2024-01-11T12:32:55;51.42;;;24.65;;
21513;SDS011;10918;48.102;11.636;2024-01-11T12:35:22;48.92;;;24.63;;
21513;SDS011;10918;48.102;11.636;2024-01-11T12:37:54;51.42;;;26.60;;
21513;SDS011;10918;48.102;11.636;2024-01-11T12:40:21;48.47;;;25.83;;
21513;SDS011;10918;48.102;11.636;2024-01-11T12:42:47;45.78;;;23.67;;
21513;SDS011;10918;48.102;11.636;2024-01-11T12:45:14;51.35;;;24.20;;
21513;SDS011;10918;48.102;11.636;2024-01-11T12:47:40;47.53;;;24.70;;
21513;SDS011;10918;48.102;11.636;2024-01-11T12:50:06;53.55;;;25.98;;
21513;SDS011;10918;48.102;11.636;2024-01-11T12:52:32;56.78;;;26.33;;
21513;SDS011;10918;48.102;11.636;2024-01-11T12:54:58;51.08;;;25.20;;
21513;SDS011;10918;48.102;11.636;2024-01-11T12:57:25;48.63;;;24.85;;
21513;SDS011;10918;48.102;11.636;2024-01-11T12:59:51;49.35;;;25.67;;
21513;SDS011;10918;48.102;11.636;2024-01-11T13:02:18;49.10;;;24.30;;
21513;SDS011;10918;48.102;11.636;2024-01-11T13:04:45;47.17;;;24.13;;
21513;SDS011;10918;48.102;11.636;2024-01-11T13:07:11;50.88;;;24.73;;
21513;SDS011;10918;48.102;11.636;2024-01-11T13:09:37;45.58;;;22.65;;
21513;SDS011;10918;48.102;11.636;2024-01-11T13:12:03;49.72;;;24.92;;
21513;SDS011;10918;48.102;11.636;2024-01-11T13:14:29;45.25;;;24.55;;
21513;SDS011;10918;48.102;11.636;2024-01-11T13:16:56;48.88;;;25.00;;
21513;SDS011;10918;48.102;11.636;2024-01-11T13:19:22;48.00;;;26.05;;
21513;SDS011;10918;48.102;11.636;2024-01-11T13:21:48;42.80;;;23.55;;
21513;SDS011;10918;48.102;11.636;2024-01-11T13:24:14;47.72;;;25.25;;
21513;SDS011;10918;48.102;11.636;2024-01-11T13:26:40;50.85;;;26.30;;
21513;SDS011;10918;48.102;11.636;2024-01-11T13:29:06;45.97;;;23.50;;
21513;SDS011;10918;48.102;11.636;2024-01-11T13:31:33;55.63;;;24.95;;
21513;SDS011;10918;48.102;11.636;2024-01-11T13:33:59;49.28;;;24.60;;
21513;SDS011;10918;48.102;11.636;2024-01-11T13:36:25;47.13;;;24.15;;
21513;SDS011;10918;48.102;11.636;2024-01-11T13:38:51;47.95;;;26.00;;
21513;SDS011;10918;48.102;11.636;2024-01-11T13:41:18;51.53;;;25.15;;
21513;SDS011;10918;48.102;11.636;2024-01-11T13:43:44;50.80;;;26.08;;
21513;SDS011;10918;48.102;11.636;2024-01-11T13:46:10;55.80;;;26.83;;
21513;SDS011;10918;48.102;11.636;2024-01-11T13:48:37;55.58;;;26.75;;
21513;SDS011;10918;48.102;11.636;2024-01-11T13:51:03;54.08;;;26.50;;
21513;SDS011;10918;48.102;11.636;2024-01-11T13:53:29;55.65;;;26.27;;
21513;SDS011;10918;48.102;11.636;2024-01-11T13:55:56;48.67;;;24.45;;
21513;SDS011;10918;48.102;11.636;2024-01-11T13:58:22;53.75;;;28.42;;
21513;SDS011;10918;48.102;11.636;2024-01-11T14:00:48;44.58;;;25.45;;
21513;SDS011;10918;48.102;11.636;2024-01-11T14:03:14;50.90;;;24.98;;
21513;SDS011;10918;48.102;11.636;2024-01-11T14:05:40;53.10;;;24.85;;
21513;SDS011;10918;48.102;11.636;2024-01-11T14:08:06;51.55;;;25.60;;